sensor_id;sensor_type;location;lat;lon;timestamp;pressure;altitude;pressure_sealevel;temperature;humidity
15634;BME280;14654;48.898;8.308;2022-08-30T00:01:06;100392.53;;;20.67;81.14
15634;BME280;14654;48.898;8.308;2022-08-30T00:03:39;100398.50;;;20.53;82.35
15634;BME280;14654;48.898;8.308;2022-08-30T00:06:06;100406.19;;;20.39;82.98
15634;BME280;14654;48.898;8.308;2022-08-30T00:08:33;100399.84;;;20.25;83.66
15634;BME280;14654;48.898;8.308;2022-08-30T00:10:59;100399.47;;;20.14;84.33
15634;BME280;14654;48.898;8.308;2022-08-30T00:13:24;100405.25;;;20.03;84.67
15634;BME280;14654;48.898;8.308;2022-08-30T00:15:50;100402.97;;;19.95;84.82
15634;BME280;14654;48.898;8.308;2022-08-30T00:18:17;100404.81;;;19.93;84.17
15634;BME280;14654;48.898;8.308;2022-08-30T00:20:45;100404.88;;;19.92;84.37
15634;BME280;14654;48.898;8.308;2022-08-30T00:23:11;100404.97;;;19.90;84.26
15634;BME280;14654;48.898;8.308;2022-08-30T00:25:37;100407.59;;;19.90;83.90
15634;BME280;14654;48.898;8.308;2022-08-30T00:28:03;100404.03;;;19.91;84.06
15634;BME280;14654;48.898;8.308;2022-08-30T00:30:29;100406.72;;;19.90;83.79
15634;BME280;14654;48.898;8.308;2022-08-30T00:32:54;100405.75;;;19.92;83.53
15634;BME280;14654;48.898;8.308;2022-08-30T00:35:21;100408.28;;;19.94;83.93
15634;BME280;14654;48.898;8.308;2022-08-30T00:37:47;100408.38;;;19.92;83.95
15634;BME280;14654;48.898;8.308;2022-08-30T00:40:13;100407.50;;;19.92;83.99
15634;BME280;14654;48.898;8.308;2022-08-30T00:42:42;100403.13;;;19.92;84.11
15634;BME280;14654;48.898;8.308;2022-08-30T00:47:45;100406.88;;;19.87;83.85
15634;BME280;14654;48.898;8.308;2022-08-30T00:50:13;100398.09;;;19.86;83.93
15634;BME280;14654;48.898;8.308;2022-08-30T00:52:41;100399.78;;;19.89;84.11
15634;BME280;14654;48.898;8.308;2022-08-30T00:55:13;100402.34;;;19.90;84.12
15634;BME280;14654;48.898;8.308;2022-08-30T00:57:42;100411.13;;;19.89;83.73
15634;BME280;14654;48.898;8.308;2022-08-30T01:00:09;100402.19;;;19.93;83.27
15634;BME280;14654;48.898;8.308;2022-08-30T01:02:35;100400.41;;;19.94;83.79
15634;BME280;14654;48.898;8.308;2022-08-30T01:05:03;100401.28;;;19.94;83.37
15634;BME280;14654;48.898;8.308;2022-08-30T01:07:29;100404.81;;;19.93;82.97
15634;BME280;14654;48.898;8.308;2022-08-30T01:09:54;100392.66;;;19.91;83.12
15634;BME280;14654;48.898;8.308;2022-08-30T01:12:20;100400.41;;;19.94;83.20
15634;BME280;14654;48.898;8.308;2022-08-30T01:14:45;100393.44;;;19.93;83.27
15634;BME280;14654;48.898;8.308;2022-08-30T01:17:12;100395.16;;;19.94;83.40
15634;BME280;14654;48.898;8.308;2022-08-30T01:19:54;100393.59;;;19.90;83.14
15634;BME280;14654;48.898;8.308;2022-08-30T01:22:31;100390.22;;;19.86;83.96
15634;BME280;14654;48.898;8.308;2022-08-30T01:25:00;100389.44;;;19.84;83.59
15634;BME280;14654;48.898;8.308;2022-08-30T01:27:27;100390.31;;;19.85;84.04
15634;BME280;14654;48.898;8.308;2022-08-30T01:29:53;100388.66;;;19.82;84.84
15634;BME280;14654;48.898;8.308;2022-08-30T01:32:23;100391.28;;;19.82;83.92
15634;BME280;14654;48.898;8.308;2022-08-30T01:34:49;100393.19;;;19.78;84.38
15634;BME280;14654;48.898;8.308;2022-08-30T01:37:19;100381.13;;;19.74;84.08
15634;BME280;14654;48.898;8.308;2022-08-30T01:39:46;100390.72;;;19.75;83.97
15634;BME280;14654;48.898;8.308;2022-08-30T01:42:16;100387.34;;;19.73;83.99
15634;BME280;14654;48.898;8.308;2022-08-30T01:44:43;100386.47;;;19.73;84.63
15634;BME280;14654;48.898;8.308;2022-08-30T01:47:09;100397.66;;;19.76;84.90
15634;BME280;14654;48.898;8.308;2022-08-30T01:49:35;100387.91;;;19.80;85.05
15634;BME280;14654;48.898;8.308;2022-08-30T01:52:01;100387.72;;;19.83;85.23
15634;BME280;14654;48.898;8.308;2022-08-30T01:54:26;100388.59;;;19.84;85.89
15634;BME280;14654;48.898;8.308;2022-08-30T01:56:51;100371.84;;;19.86;86.40
15634;BME280;14654;48.898;8.308;2022-08-30T01:59:17;100374.44;;;19.88;86.46
15634;BME280;14654;48.898;8.308;2022-08-30T02:01:42;100371.94;;;19.85;87.15
15634;BME280;14654;48.898;8.308;2022-08-30T02:04:08;100369.34;;;19.83;87.69
15634;BME280;14654;48.898;8.308;2022-08-30T02:06:36;100373.91;;;19.79;87.99
15634;BME280;14654;48.898;8.308;2022-08-30T02:09:02;100381.13;;;19.74;88.36
15634;BME280;14654;48.898;8.308;2022-08-30T02:11:27;100389.16;;;19.71;88.52
15634;BME280;14654;48.898;8.308;2022-08-30T02:13:53;100394.59;;;19.67;88.60
15634;BME280;14654;48.898;8.308;2022-08-30T02:16:21;100388.16;;;19.55;87.86
15634;BME280;14654;48.898;8.308;2022-08-30T02:18:49;100385.16;;;19.43;86.01
15634;BME280;14654;48.898;8.308;2022-08-30T02:21:15;100389.81;;;19.37;85.72
15634;BME280;14654;48.898;8.308;2022-08-30T02:23:41;100381.06;;;19.17;86.48
15634;BME280;14654;48.898;8.308;2022-08-30T02:26:07;100380.81;;;19.02;87.33
15634;BME280;14654;48.898;8.308;2022-08-30T02:28:33;100375.91;;;18.93;87.91
15634;BME280;14654;48.898;8.308;2022-08-30T02:30:59;100376.97;;;18.89;88.71
15634;BME280;14654;48.898;8.308;2022-08-30T02:33:25;100371.78;;;18.87;89.38
15634;BME280;14654;48.898;8.308;2022-08-30T02:35:50;100374.41;;;18.87;89.43
15634;BME280;14654;48.898;8.308;2022-08-30T02:38:16;100372.88;;;18.82;90.00
15634;BME280;14654;48.898;8.308;2022-08-30T02:40:41;100370.50;;;18.76;90.75
15634;BME280;14654;48.898;8.308;2022-08-30T02:43:08;100369.78;;;18.72;91.35
15634;BME280;14654;48.898;8.308;2022-08-30T02:45:33;100377.84;;;18.67;91.79
15634;BME280;14654;48.898;8.308;2022-08-30T02:47:59;100369.28;;;18.64;91.70
15634;BME280;14654;48.898;8.308;2022-08-30T02:50:25;100364.22;;;18.59;91.99
15634;BME280;14654;48.898;8.308;2022-08-30T02:52:50;100361.75;;;18.54;92.70
15634;BME280;14654;48.898;8.308;2022-08-30T02:55:17;100359.22;;;18.53;92.78
15634;BME280;14654;48.898;8.308;2022-08-30T02:57:43;100361.13;;;18.49;93.13
15634;BME280;14654;48.898;8.308;2022-08-30T03:00:10;100359.47;;;18.47;93.44
15634;BME280;14654;48.898;8.308;2022-08-30T03:02:37;100364.78;;;18.45;94.12
15634;BME280;14654;48.898;8.308;2022-08-30T03:05:05;100363.19;;;18.41;94.09
15634;BME280;14654;48.898;8.308;2022-08-30T03:07:31;100360.69;;;18.38;94.47
15634;BME280;14654;48.898;8.308;2022-08-30T03:09:56;100357.34;;;18.34;94.43
15634;BME280;14654;48.898;8.308;2022-08-30T03:12:22;100352.09;;;18.34;94.92
15634;BME280;14654;48.898;8.308;2022-08-30T03:14:49;100353.94;;;18.32;94.86
15634;BME280;14654;48.898;8.308;2022-08-30T03:17:15;100356.50;;;18.34;95.74
15634;BME280;14654;48.898;8.308;2022-08-30T03:19:41;100353.22;;;18.28;96.00
15634;BME280;14654;48.898;8.308;2022-08-30T03:22:07;100346.25;;;18.27;96.46
15634;BME280;14654;48.898;8.308;2022-08-30T03:24:32;100347.25;;;18.25;96.55
15634;BME280;14654;48.898;8.308;2022-08-30T03:26:58;100342.91;;;18.24;96.31
15634;BME280;14654;48.898;8.308;2022-08-30T03:29:24;100349.19;;;18.20;96.56
15634;BME280;14654;48.898;8.308;2022-08-30T03:31:50;100359.78;;;18.17;96.50
15634;BME280;14654;48.898;8.308;2022-08-30T03:34:16;100349.50;;;18.12;97.35
15634;BME280;14654;48.898;8.308;2022-08-30T03:36:42;100354.00;;;18.08;97.82
15634;BME280;14654;48.898;8.308;2022-08-30T03:39:08;100352.41;;;18.04;98.66
15634;BME280;14654;48.898;8.308;2022-08-30T03:41:34;100351.75;;;17.99;98.49
15634;BME280;14654;48.898;8.308;2022-08-30T03:44:01;100348.47;;;17.92;98.77
15634;BME280;14654;48.898;8.308;2022-08-30T03:46:27;100355.66;;;17.87;99.22
15634;BME280;14654;48.898;8.308;2022-08-30T03:48:53;100355.88;;;17.81;99.27
15634;BME280;14654;48.898;8.308;2022-08-30T03:51:23;100355.09;;;17.79;99.77
15634;BME280;14654;48.898;8.308;2022-08-30T03:53:48;100358.69;;;17.76;100.00
15634;BME280;14654;48.898;8.308;2022-08-30T03:56:15;100357.03;;;17.74;100.00
15634;BME280;14654;48.898;8.308;2022-08-30T03:58:41;100359.78;;;17.71;100.00
15634;BME280;14654;48.898;8.308;2022-08-30T04:01:06;100365.06;;;17.69;99.55
15634;BME280;14654;48.898;8.308;2022-08-30T04:03:32;100358.97;;;17.68;99.46
15634;BME280;14654;48.898;8.308;2022-08-30T04:05:58;100362.66;;;17.63;99.48
15634;BME280;14654;48.898;8.308;2022-08-30T04:08:25;100365.34;;;17.61;99.67
15634;BME280;14654;48.898;8.308;2022-08-30T04:10:51;100361.97;;;17.58;99.97
15634;BME280;14654;48.898;8.308;2022-08-30T04:13:18;100357.72;;;17.55;100.00
15634;BME280;14654;48.898;8.308;2022-08-30T04:15:44;100357.72;;;17.55;100.00
15634;BME280;14654;48.898;8.308;2022-08-30T04:18:10;100363.06;;;17.52;100.00
15634;BME280;14654;48.898;8.308;2022-08-30T04:20:35;100366.47;;;17.54;100.00
15634;BME280;14654;48.898;8.308;2022-08-30T04:23:02;100359.66;;;17.50;100.00
15634;BME280;14654;48.898;8.308;2022-08-30T04:25:28;100364.16;;;17.46;100.00
15634;BME280;14654;48.898;8.308;2022-08-30T04:27:53;100368.56;;;17.44;100.00
15634;BME280;14654;48.898;8.308;2022-08-30T04:30:19;100368.75;;;17.40;100.00
15634;BME280;14654;48.898;8.308;2022-08-30T04:32:45;100375.91;;;17.34;100.00
15634;BME280;14654;48.898;8.308;2022-08-30T04:35:13;100367.25;;;17.32;100.00
15634;BME280;14654;48.898;8.308;2022-08-30T04:37:39;100370.03;;;17.28;100.00
15634;BME280;14654;48.898;8.308;2022-08-30T04:40:05;100372.59;;;17.29;100.00
15634;BME280;14654;48.898;8.308;2022-08-30T04:42:33;100385.72;;;17.28;100.00
15634;BME280;14654;48.898;8.308;2022-08-30T04:45:11;100378.75;;;17.28;100.00
15634;BME280;14654;48.898;8.308;2022-08-30T04:47:37;100377.88;;;17.28;100.00
15634;BME280;14654;48.898;8.308;2022-08-30T04:50:09;100373.56;;;17.27;100.00
15634;BME280;14654;48.898;8.308;2022-08-30T04:52:34;100373.53;;;17.28;100.00
15634;BME280;14654;48.898;8.308;2022-08-30T04:55:00;100371.00;;;17.25;100.00
15634;BME280;14654;48.898;8.308;2022-08-30T04:57:26;100364.81;;;17.28;100.00
15634;BME280;14654;48.898;8.308;2022-08-30T04:59:52;100365.66;;;17.28;100.00
15634;BME280;14654;48.898;8.308;2022-08-30T05:02:18;100374.44;;;17.27;100.00
15634;BME280;14654;48.898;8.308;2022-08-30T05:04:43;100359.53;;;17.29;100.00
15634;BME280;14654;48.898;8.308;2022-08-30T05:07:28;100372.38;;;17.35;100.00
15634;BME280;14654;48.898;8.308;2022-08-30T05:09:54;100375.75;;;17.39;100.00
15634;BME280;14654;48.898;8.308;2022-08-30T05:12:20;100374.78;;;17.42;100.00
15634;BME280;14654;48.898;8.308;2022-08-30T05:14:45;100383.44;;;17.44;100.00
15634;BME280;14654;48.898;8.308;2022-08-30T05:17:11;100385.94;;;17.47;100.00
15634;BME280;14654;48.898;8.308;2022-08-30T05:19:36;100390.09;;;17.52;100.00
15634;BME280;14654;48.898;8.308;2022-08-30T05:22:02;100397.69;;;17.59;100.00
15634;BME280;14654;48.898;8.308;2022-08-30T05:24:28;100403.38;;;17.70;100.00
15634;BME280;14654;48.898;8.308;2022-08-30T05:26:53;100400.44;;;17.79;100.00
15634;BME280;14654;48.898;8.308;2022-08-30T05:29:18;100407.03;;;17.90;100.00
15634;BME280;14654;48.898;8.308;2022-08-30T05:31:44;100412.81;;;18.00;100.00
15634;BME280;14654;48.898;8.308;2022-08-30T05:34:10;100403.84;;;18.07;100.00
15634;BME280;14654;48.898;8.308;2022-08-30T05:36:37;100400.97;;;18.13;100.00
15634;BME280;14654;48.898;8.308;2022-08-30T05:39:05;100399.81;;;18.20;100.00
15634;BME280;14654;48.898;8.308;2022-08-30T05:41:30;100405.22;;;18.38;99.86
15634;BME280;14654;48.898;8.308;2022-08-30T05:43:57;100399.69;;;18.68;99.11
15634;BME280;14654;48.898;8.308;2022-08-30T05:46:24;100401.53;;;18.86;98.13
15634;BME280;14654;48.898;8.308;2022-08-30T05:48:50;100402.63;;;19.24;97.17
15634;BME280;14654;48.898;8.308;2022-08-30T05:51:21;100402.44;;;19.68;95.40
15634;BME280;14654;48.898;8.308;2022-08-30T05:53:49;100398.88;;;19.69;95.63
15634;BME280;14654;48.898;8.308;2022-08-30T05:56:19;100392.72;;;19.70;95.56
15634;BME280;14654;48.898;8.308;2022-08-30T05:58:44;100390.97;;;19.90;95.23
15634;BME280;14654;48.898;8.308;2022-08-30T06:01:26;100389.53;;;20.02;93.16
15634;BME280;14654;48.898;8.308;2022-08-30T06:03:53;100395.88;;;20.17;93.40
15634;BME280;14654;48.898;8.308;2022-08-30T06:06:19;100393.63;;;20.46;92.57
15634;BME280;14654;48.898;8.308;2022-08-30T06:08:45;100397.25;;;20.61;91.66
15634;BME280;14654;48.898;8.308;2022-08-30T06:11:14;100395.59;;;20.77;90.93
15634;BME280;14654;48.898;8.308;2022-08-30T06:13:40;100389.25;;;20.99;89.69
15634;BME280;14654;48.898;8.308;2022-08-30T06:16:06;100382.41;;;21.30;88.29
15634;BME280;14654;48.898;8.308;2022-08-30T06:18:31;100382.28;;;22.31;85.90
15634;BME280;14654;48.898;8.308;2022-08-30T06:20:57;100392.97;;;23.35;82.08
15634;BME280;14654;48.898;8.308;2022-08-30T06:23:23;100390.13;;;23.96;79.33
15634;BME280;14654;48.898;8.308;2022-08-30T06:25:48;100393.25;;;24.16;77.39
15634;BME280;14654;48.898;8.308;2022-08-30T06:28:14;100400.97;;;24.74;77.01
15634;BME280;14654;48.898;8.308;2022-08-30T06:30:41;100393.44;;;25.21;75.54
15634;BME280;14654;48.898;8.308;2022-08-30T06:33:07;100396.94;;;25.47;74.27
15634;BME280;14654;48.898;8.308;2022-08-30T06:35:32;100392.00;;;25.80;73.95
15634;BME280;14654;48.898;8.308;2022-08-30T06:37:58;100394.47;;;26.07;73.08
15634;BME280;14654;48.898;8.308;2022-08-30T06:40:24;100395.09;;;26.24;72.67
15634;BME280;14654;48.898;8.308;2022-08-30T06:42:49;100392.47;;;26.35;72.48
15634;BME280;14654;48.898;8.308;2022-08-30T06:45:16;100405.53;;;26.38;72.31
15634;BME280;14654;48.898;8.308;2022-08-30T06:47:42;100389.28;;;26.54;72.38
15634;BME280;14654;48.898;8.308;2022-08-30T06:50:09;100398.81;;;26.81;71.75
15634;BME280;14654;48.898;8.308;2022-08-30T06:52:36;100397.56;;;26.74;71.63
15634;BME280;14654;48.898;8.308;2022-08-30T06:55:01;100399.81;;;26.91;70.90
15634;BME280;14654;48.898;8.308;2022-08-30T06:57:27;100395.75;;;26.74;71.36
15634;BME280;14654;48.898;8.308;2022-08-30T06:59:56;100397.41;;;26.88;71.24
15634;BME280;14654;48.898;8.308;2022-08-30T07:02:23;100392.34;;;26.97;71.02
15634;BME280;14654;48.898;8.308;2022-08-30T07:04:48;100397.28;;;27.01;71.52
15634;BME280;14654;48.898;8.308;2022-08-30T07:07:13;100399.25;;;27.11;71.45
15634;BME280;14654;48.898;8.308;2022-08-30T07:09:39;100391.50;;;27.07;70.93
15634;BME280;14654;48.898;8.308;2022-08-30T07:12:08;100393.41;;;26.83;71.54
15634;BME280;14654;48.898;8.308;2022-08-30T07:14:34;100401.19;;;26.73;72.53
15634;BME280;14654;48.898;8.308;2022-08-30T07:16:59;100398.59;;;26.60;72.74
15634;BME280;14654;48.898;8.308;2022-08-30T07:19:45;100404.50;;;26.63;73.10
15634;BME280;14654;48.898;8.308;2022-08-30T07:22:12;100397.38;;;26.53;73.03
15634;BME280;14654;48.898;8.308;2022-08-30T07:24:38;100405.09;;;26.56;73.47
15634;BME280;14654;48.898;8.308;2022-08-30T07:27:03;100400.59;;;26.45;73.39
15634;BME280;14654;48.898;8.308;2022-08-30T07:29:28;100400.69;;;26.19;73.81
15634;BME280;14654;48.898;8.308;2022-08-30T07:31:54;100404.94;;;25.71;75.03
15634;BME280;14654;48.898;8.308;2022-08-30T07:34:19;100402.94;;;25.23;76.62
15634;BME280;14654;48.898;8.308;2022-08-30T07:36:46;100401.78;;;25.15;77.27
15634;BME280;14654;48.898;8.308;2022-08-30T07:39:11;100406.16;;;25.41;77.06
15634;BME280;14654;48.898;8.308;2022-08-30T07:41:37;100411.09;;;25.72;76.29
15634;BME280;14654;48.898;8.308;2022-08-30T07:44:06;100410.00;;;25.87;76.45
15634;BME280;14654;48.898;8.308;2022-08-30T07:46:32;100410.81;;;26.01;75.58
15634;BME280;14654;48.898;8.308;2022-08-30T07:48:58;100407.09;;;26.03;75.84
15634;BME280;14654;48.898;8.308;2022-08-30T07:51:25;100408.19;;;25.88;75.63
15634;BME280;14654;48.898;8.308;2022-08-30T07:53:52;100398.69;;;25.72;76.24
15634;BME280;14654;48.898;8.308;2022-08-30T07:56:18;100399.56;;;25.73;76.59
15634;BME280;14654;48.898;8.308;2022-08-30T07:58:43;100404.84;;;25.60;76.91
15634;BME280;14654;48.898;8.308;2022-08-30T08:01:10;100405.69;;;25.74;76.71
15634;BME280;14654;48.898;8.308;2022-08-30T08:03:37;100399.75;;;25.70;76.85
15634;BME280;14654;48.898;8.308;2022-08-30T08:06:08;100400.16;;;25.90;76.63
15634;BME280;14654;48.898;8.308;2022-08-30T08:08:35;100403.69;;;26.14;76.37
15634;BME280;14654;48.898;8.308;2022-08-30T08:13:32;100402.88;;;26.14;76.13
15634;BME280;14654;48.898;8.308;2022-08-30T08:15:57;100400.31;;;26.12;76.25
15634;BME280;14654;48.898;8.308;2022-08-30T08:18:23;100406.47;;;26.13;76.41
15634;BME280;14654;48.898;8.308;2022-08-30T08:20:48;100401.03;;;26.14;76.58
15634;BME280;14654;48.898;8.308;2022-08-30T08:23:14;100400.00;;;26.04;76.91
15634;BME280;14654;48.898;8.308;2022-08-30T08:25:40;100396.00;;;25.85;77.68
15634;BME280;14654;48.898;8.308;2022-08-30T08:28:05;100393.69;;;25.81;78.04
15634;BME280;14654;48.898;8.308;2022-08-30T08:30:34;100395.25;;;25.96;78.11
15634;BME280;14654;48.898;8.308;2022-08-30T08:33:00;100393.88;;;25.91;78.03
15634;BME280;14654;48.898;8.308;2022-08-30T08:35:26;100393.13;;;26.01;78.04
15634;BME280;14654;48.898;8.308;2022-08-30T08:37:51;100392.03;;;26.04;78.29
15634;BME280;14654;48.898;8.308;2022-08-30T08:40:18;100394.44;;;26.20;77.62
15634;BME280;14654;48.898;8.308;2022-08-30T08:48:25;100392.47;;;26.11;77.53
15634;BME280;14654;48.898;8.308;2022-08-30T08:50:52;100386.22;;;25.99;78.36
15634;BME280;14654;48.898;8.308;2022-08-30T08:53:37;100388.47;;;25.92;78.92
15634;BME280;14654;48.898;8.308;2022-08-30T08:56:06;100386.00;;;26.15;78.54
15634;BME280;14654;48.898;8.308;2022-08-30T08:58:53;100385.66;;;26.20;78.08
15634;BME280;14654;48.898;8.308;2022-08-30T09:01:22;100381.41;;;26.17;78.50
15634;BME280;14654;48.898;8.308;2022-08-30T09:03:48;100383.47;;;26.00;78.21
15634;BME280;14654;48.898;8.308;2022-08-30T09:06:47;100376.72;;;26.21;78.08
15634;BME280;14654;48.898;8.308;2022-08-30T09:09:17;100379.59;;;26.17;78.23
15634;BME280;14654;48.898;8.308;2022-08-30T09:11:45;100372.44;;;26.31;78.10
15634;BME280;14654;48.898;8.308;2022-08-30T09:14:15;100368.66;;;26.58;78.11
15634;BME280;14654;48.898;8.308;2022-08-30T09:17:03;100361.84;;;26.78;77.52
15634;BME280;14654;48.898;8.308;2022-08-30T09:22:39;100360.91;;;26.79;77.40
15634;BME280;14654;48.898;8.308;2022-08-30T09:25:19;100364.19;;;26.83;77.44
15634;BME280;14654;48.898;8.308;2022-08-30T09:27:49;100358.34;;;26.66;77.31
15634;BME280;14654;48.898;8.308;2022-08-30T09:30:24;100359.78;;;26.70;77.31
15634;BME280;14654;48.898;8.308;2022-08-30T09:35:25;100350.13;;;27.05;76.35
15634;BME280;14654;48.898;8.308;2022-08-30T09:38:09;100344.81;;;27.05;76.58
15634;BME280;14654;48.898;8.308;2022-08-30T09:40:38;100342.97;;;26.94;76.67
15634;BME280;14654;48.898;8.308;2022-08-30T09:43:07;100339.00;;;27.11;76.78
15634;BME280;14654;48.898;8.308;2022-08-30T09:45:40;100341.78;;;27.21;76.33
15634;BME280;14654;48.898;8.308;2022-08-30T09:48:35;100343.34;;;27.23;75.94
15634;BME280;14654;48.898;8.308;2022-08-30T09:56:50;100345.91;;;27.14;75.81
15634;BME280;14654;48.898;8.308;2022-08-30T09:59:50;100327.16;;;27.27;75.66
15634;BME280;14654;48.898;8.308;2022-08-30T10:10:54;100311.91;;;27.74;73.71
15634;BME280;14654;48.898;8.308;2022-08-30T10:13:58;100309.22;;;27.86;73.51
15634;BME280;14654;48.898;8.308;2022-08-30T10:16:51;100304.03;;;27.84;73.09
15634;BME280;14654;48.898;8.308;2022-08-30T10:22:17;100296.97;;;27.94;72.66
15634;BME280;14654;48.898;8.308;2022-08-30T10:24:50;100302.44;;;28.25;71.76
15634;BME280;14654;48.898;8.308;2022-08-30T10:27:22;100301.22;;;27.97;71.50
15634;BME280;14654;48.898;8.308;2022-08-30T10:29:54;100294.84;;;27.77;71.77
15634;BME280;14654;48.898;8.308;2022-08-30T10:32:28;100304.91;;;27.73;71.77
15634;BME280;14654;48.898;8.308;2022-08-30T10:35:01;100288.31;;;27.81;71.90
15634;BME280;14654;48.898;8.308;2022-08-30T10:37:29;100286.19;;;28.07;71.52
15634;BME280;14654;48.898;8.308;2022-08-30T10:40:02;100290.63;;;28.07;71.06
15634;BME280;14654;48.898;8.308;2022-08-30T10:42:50;100281.25;;;28.03;70.92
15634;BME280;14654;48.898;8.308;2022-08-30T10:45:16;100287.59;;;27.90;71.23
15634;BME280;14654;48.898;8.308;2022-08-30T10:47:59;100285.56;;;27.82;70.76
15634;BME280;14654;48.898;8.308;2022-08-30T10:50:39;100290.75;;;27.84;71.27
15634;BME280;14654;48.898;8.308;2022-08-30T10:53:14;100287.31;;;27.93;71.12
15634;BME280;14654;48.898;8.308;2022-08-30T10:55:47;100289.66;;;28.08;71.58
15634;BME280;14654;48.898;8.308;2022-08-30T10:58:14;100285.22;;;28.08;70.75
15634;BME280;14654;48.898;8.308;2022-08-30T11:00:56;100281.56;;;28.21;70.61
15634;BME280;14654;48.898;8.308;2022-08-30T11:08:43;100285.56;;;28.15;70.48
15634;BME280;14654;48.898;8.308;2022-08-30T11:11:26;100268.78;;;28.36;70.59
15634;BME280;14654;48.898;8.308;2022-08-30T11:13:54;100273.09;;;28.16;70.46
15634;BME280;14654;48.898;8.308;2022-08-30T11:16:33;100268.72;;;28.26;70.38
15634;BME280;14654;48.898;8.308;2022-08-30T11:18:59;100275.31;;;28.10;71.01
15634;BME280;14654;48.898;8.308;2022-08-30T11:21:34;100278.75;;;28.22;70.80
15634;BME280;14654;48.898;8.308;2022-08-30T11:31:50;100280.97;;;28.59;69.06
15634;BME280;14654;48.898;8.308;2022-08-30T11:37:43;100275.81;;;28.68;68.52
15634;BME280;14654;48.898;8.308;2022-08-30T11:42:48;100278.00;;;28.74;68.42
15634;BME280;14654;48.898;8.308;2022-08-30T11:56:09;100270.59;;;28.35;68.93
15634;BME280;14654;48.898;8.308;2022-08-30T11:58:53;100272.53;;;28.33;68.88
15634;BME280;14654;48.898;8.308;2022-08-30T12:09:06;100258.53;;;28.73;68.29
15634;BME280;14654;48.898;8.308;2022-08-30T12:13:58;100277.38;;;28.92;67.38
15634;BME280;14654;48.898;8.308;2022-08-30T12:16:50;100263.25;;;29.01;66.68
15634;BME280;14654;48.898;8.308;2022-08-30T12:19:34;100252.31;;;29.04;66.94
15634;BME280;14654;48.898;8.308;2022-08-30T12:22:02;100252.63;;;29.11;66.93
15634;BME280;14654;48.898;8.308;2022-08-30T12:24:37;100258.09;;;29.09;67.14
15634;BME280;14654;48.898;8.308;2022-08-30T12:27:29;100253.16;;;29.04;66.93
15634;BME280;14654;48.898;8.308;2022-08-30T12:30:00;100249.47;;;28.86;66.62
15634;BME280;14654;48.898;8.308;2022-08-30T12:32:29;100249.59;;;28.84;67.12
15634;BME280;14654;48.898;8.308;2022-08-30T12:34:57;100238.72;;;28.97;67.19
15634;BME280;14654;48.898;8.308;2022-08-30T12:37:29;100253.06;;;29.16;67.18
15634;BME280;14654;48.898;8.308;2022-08-30T12:40:11;100248.00;;;29.13;67.08
15634;BME280;14654;48.898;8.308;2022-08-30T12:42:40;100240.59;;;29.16;65.97
15634;BME280;14654;48.898;8.308;2022-08-30T12:45:11;100238.00;;;29.36;66.12
15634;BME280;14654;48.898;8.308;2022-08-30T12:47:52;100232.91;;;29.33;65.94
15634;BME280;14654;48.898;8.308;2022-08-30T12:50:24;100229.75;;;29.39;66.29
15634;BME280;14654;48.898;8.308;2022-08-30T12:52:59;100230.00;;;29.36;65.75
15634;BME280;14654;48.898;8.308;2022-08-30T12:55:29;100230.03;;;29.46;65.28
15634;BME280;14654;48.898;8.308;2022-08-30T12:58:06;100232.69;;;29.46;65.06
15634;BME280;14654;48.898;8.308;2022-08-30T13:00:42;100221.03;;;29.37;65.03
15634;BME280;14654;48.898;8.308;2022-08-30T13:03:32;100205.75;;;29.39;65.68
15634;BME280;14654;48.898;8.308;2022-08-30T13:05:58;100211.63;;;29.43;65.23
15634;BME280;14654;48.898;8.308;2022-08-30T13:08:28;100212.47;;;29.43;64.93
15634;BME280;14654;48.898;8.308;2022-08-30T13:11:08;100209.38;;;29.58;64.99
15634;BME280;14654;48.898;8.308;2022-08-30T13:18:37;100199.44;;;29.60;64.07
15634;BME280;14654;48.898;8.308;2022-08-30T13:21:10;100198.47;;;29.41;64.08
15634;BME280;14654;48.898;8.308;2022-08-30T13:23:36;100204.44;;;29.33;64.28
15634;BME280;14654;48.898;8.308;2022-08-30T13:26:05;100184.81;;;29.44;64.37
15634;BME280;14654;48.898;8.308;2022-08-30T13:31:11;100186.94;;;29.41;64.95
15634;BME280;14654;48.898;8.308;2022-08-30T13:33:36;100174.44;;;29.31;64.66
15634;BME280;14654;48.898;8.308;2022-08-30T13:36:02;100171.66;;;29.43;65.07
15634;BME280;14654;48.898;8.308;2022-08-30T13:38:28;100163.66;;;29.53;64.88
15634;BME280;14654;48.898;8.308;2022-08-30T13:40:53;100164.78;;;29.60;64.16
15634;BME280;14654;48.898;8.308;2022-08-30T13:43:18;100174.31;;;29.43;63.96
15634;BME280;14654;48.898;8.308;2022-08-30T13:45:44;100157.63;;;29.50;64.59
15634;BME280;14654;48.898;8.308;2022-08-30T13:48:10;100151.00;;;29.74;63.97
15634;BME280;14654;48.898;8.308;2022-08-30T13:50:37;100153.56;;;29.46;63.25
15634;BME280;14654;48.898;8.308;2022-08-30T13:53:03;100151.88;;;29.45;63.97
15634;BME280;14654;48.898;8.308;2022-08-30T13:55:29;100151.03;;;29.55;63.80
15634;BME280;14654;48.898;8.308;2022-08-30T13:57:54;100146.25;;;29.68;63.76
15634;BME280;14654;48.898;8.308;2022-08-30T14:00:20;100143.88;;;29.75;64.23
15634;BME280;14654;48.898;8.308;2022-08-30T14:02:47;100146.97;;;29.70;63.72
15634;BME280;14654;48.898;8.308;2022-08-30T14:05:14;100144.84;;;29.64;63.62
15634;BME280;14654;48.898;8.308;2022-08-30T14:07:39;100143.16;;;29.43;64.03
15634;BME280;14654;48.898;8.308;2022-08-30T14:10:05;100138.69;;;29.54;64.04
15634;BME280;14654;48.898;8.308;2022-08-30T14:12:30;100159.88;;;29.55;63.54
15634;BME280;14654;48.898;8.308;2022-08-30T14:14:56;100135.47;;;29.40;63.39
15634;BME280;14654;48.898;8.308;2022-08-30T14:17:21;100138.97;;;29.41;63.35